sensor_id;sensor_type;location;lat;lon;timestamp;temperature;humidity
20977;DHT22;10647;51.016;3.720;2023-06-14T00:01:03;23.00;81.60
20977;DHT22;10647;51.016;3.720;2023-06-14T00:03:32;23.00;82.00
20977;DHT22;10647;51.016;3.720;2023-06-14T00:05:59;22.90;82.50
20977;DHT22;10647;51.016;3.720;2023-06-14T00:08:27;22.80;82.90
20977;DHT22;10647;51.016;3.720;2023-06-14T00:10:54;22.80;83.10
20977;DHT22;10647;51.016;3.720;2023-06-14T00:13:22;22.80;83.40
20977;DHT22;10647;51.016;3.720;2023-06-14T00:15:50;22.80;83.60
20977;DHT22;10647;51.016;3.720;2023-06-14T00:18:19;22.70;83.80
20977;DHT22;10647;51.016;3.720;2023-06-14T00:20:46;22.70;84.00
20977;DHT22;10647;51.016;3.720;2023-06-14T00:23:14;22.70;83.90
20977;DHT22;10647;51.016;3.720;2023-06-14T00:25:41;22.70;84.10
20977;DHT22;10647;51.016;3.720;2023-06-14T00:28:09;22.60;84.10
20977;DHT22;10647;51.016;3.720;2023-06-14T00:30:36;22.60;84.20
20977;DHT22;10647;51.016;3.720;2023-06-14T00:33:04;22.60;84.20
20977;DHT22;10647;51.016;3.720;2023-06-14T00:35:32;22.60;84.60
20977;DHT22;10647;51.016;3.720;2023-06-14T00:37:59;22.50;84.60
20977;DHT22;10647;51.016;3.720;2023-06-14T00:40:29;22.50;84.90
20977;DHT22;10647;51.016;3.720;2023-06-14T00:42:56;22.50;85.00
20977;DHT22;10647;51.016;3.720;2023-06-14T00:45:24;22.40;85.00
20977;DHT22;10647;51.016;3.720;2023-06-14T00:47:53;22.40;85.10
20977;DHT22;10647;51.016;3.720;2023-06-14T00:50:21;22.40;85.20
20977;DHT22;10647;51.016;3.720;2023-06-14T00:52:51;22.40;85.40
20977;DHT22;10647;51.016;3.720;2023-06-14T00:55:19;22.30;85.60
20977;DHT22;10647;51.016;3.720;2023-06-14T00:57:48;22.30;85.60
20977;DHT22;10647;51.016;3.720;2023-06-14T01:00:16;22.20;85.70
20977;DHT22;10647;51.016;3.720;2023-06-14T01:02:44;22.20;85.80
20977;DHT22;10647;51.016;3.720;2023-06-14T01:05:12;22.20;85.80
20977;DHT22;10647;51.016;3.720;2023-06-14T01:08:05;22.20;86.00
20977;DHT22;10647;51.016;3.720;2023-06-14T01:13:32;22.10;86.30
20977;DHT22;10647;51.016;3.720;2023-06-14T01:15:58;22.00;86.50
20977;DHT22;10647;51.016;3.720;2023-06-14T01:18:28;22.00;86.70
20977;DHT22;10647;51.016;3.720;2023-06-14T01:20:56;21.90;86.70
20977;DHT22;10647;51.016;3.720;2023-06-14T01:23:24;21.90;86.70
20977;DHT22;10647;51.016;3.720;2023-06-14T01:25:53;21.90;86.60
20977;DHT22;10647;51.016;3.720;2023-06-14T01:28:22;21.90;86.50
20977;DHT22;10647;51.016;3.720;2023-06-14T01:30:54;21.90;86.30
20977;DHT22;10647;51.016;3.720;2023-06-14T01:33:23;21.90;86.30
20977;DHT22;10647;51.016;3.720;2023-06-14T01:35:53;21.80;86.50
20977;DHT22;10647;51.016;3.720;2023-06-14T01:38:26;21.80;86.70
20977;DHT22;10647;51.016;3.720;2023-06-14T01:43:35;21.80;86.80
20977;DHT22;10647;51.016;3.720;2023-06-14T01:46:03;21.70;86.50
20977;DHT22;10647;51.016;3.720;2023-06-14T01:48:32;21.70;86.50
20977;DHT22;10647;51.016;3.720;2023-06-14T01:50:59;21.60;86.60
20977;DHT22;10647;51.016;3.720;2023-06-14T01:53:27;21.60;86.80
20977;DHT22;10647;51.016;3.720;2023-06-14T01:55:54;21.60;87.00
20977;DHT22;10647;51.016;3.720;2023-06-14T01:58:22;21.50;87.30
20977;DHT22;10647;51.016;3.720;2023-06-14T02:00:52;21.50;87.40
20977;DHT22;10647;51.016;3.720;2023-06-14T02:03:21;21.50;87.50
20977;DHT22;10647;51.016;3.720;2023-06-14T02:05:50;21.40;87.60
20977;DHT22;10647;51.016;3.720;2023-06-14T02:08:17;21.40;87.70
20977;DHT22;10647;51.016;3.720;2023-06-14T02:10:46;21.30;87.70
20977;DHT22;10647;51.016;3.720;2023-06-14T02:13:14;21.30;87.60
20977;DHT22;10647;51.016;3.720;2023-06-14T02:15:42;21.30;87.60
20977;DHT22;10647;51.016;3.720;2023-06-14T02:18:12;21.20;87.60
20977;DHT22;10647;51.016;3.720;2023-06-14T02:20:40;21.20;87.40
20977;DHT22;10647;51.016;3.720;2023-06-14T02:23:09;21.20;87.40
20977;DHT22;10647;51.016;3.720;2023-06-14T02:25:37;21.20;87.30
20977;DHT22;10647;51.016;3.720;2023-06-14T02:28:06;21.10;87.30
20977;DHT22;10647;51.016;3.720;2023-06-14T02:30:33;21.10;87.20
20977;DHT22;10647;51.016;3.720;2023-06-14T02:33:01;21.10;87.00
20977;DHT22;10647;51.016;3.720;2023-06-14T02:35:30;21.00;87.10
20977;DHT22;10647;51.016;3.720;2023-06-14T02:37:58;21.00;87.10
20977;DHT22;10647;51.016;3.720;2023-06-14T02:40:28;21.00;87.00
20977;DHT22;10647;51.016;3.720;2023-06-14T02:42:55;21.00;86.80
20977;DHT22;10647;51.016;3.720;2023-06-14T02:45:23;20.90;86.80
20977;DHT22;10647;51.016;3.720;2023-06-14T02:47:51;20.90;86.70
20977;DHT22;10647;51.016;3.720;2023-06-14T02:50:19;20.90;86.70
20977;DHT22;10647;51.016;3.720;2023-06-14T02:52:48;21.10;86.50
20977;DHT22;10647;51.016;3.720;2023-06-14T02:55:15;20.80;86.40
20977;DHT22;10647;51.016;3.720;2023-06-14T02:57:44;20.80;86.40
20977;DHT22;10647;51.016;3.720;2023-06-14T03:00:13;20.70;86.30
20977;DHT22;10647;51.016;3.720;2023-06-14T03:02:41;20.70;86.40
20977;DHT22;10647;51.016;3.720;2023-06-14T03:05:09;20.70;86.20
20977;DHT22;10647;51.016;3.720;2023-06-14T03:07:37;20.60;86.10
20977;DHT22;10647;51.016;3.720;2023-06-14T03:10:11;20.60;86.00
20977;DHT22;10647;51.016;3.720;2023-06-14T03:12:39;20.60;86.10
20977;DHT22;10647;51.016;3.720;2023-06-14T03:15:07;20.60;86.20
20977;DHT22;10647;51.016;3.720;2023-06-14T03:17:38;20.60;86.10
20977;DHT22;10647;51.016;3.720;2023-06-14T03:20:06;20.50;85.90
20977;DHT22;10647;51.016;3.720;2023-06-14T03:22:35;20.50;86.00
20977;DHT22;10647;51.016;3.720;2023-06-14T03:25:03;20.50;86.00
20977;DHT22;10647;51.016;3.720;2023-06-14T03:27:31;20.40;85.70
20977;DHT22;10647;51.016;3.720;2023-06-14T03:29:59;20.40;85.50
20977;DHT22;10647;51.016;3.720;2023-06-14T03:32:27;20.40;85.30
20977;DHT22;10647;51.016;3.720;2023-06-14T03:34:54;20.40;85.10
20977;DHT22;10647;51.016;3.720;2023-06-14T03:37:22;20.40;85.00
20977;DHT22;10647;51.016;3.720;2023-06-14T03:39:49;20.40;84.80
20977;DHT22;10647;51.016;3.720;2023-06-14T03:42:17;20.40;84.60
20977;DHT22;10647;51.016;3.720;2023-06-14T03:44:44;20.40;84.40
20977;DHT22;10647;51.016;3.720;2023-06-14T03:47:12;20.40;84.10
20977;DHT22;10647;51.016;3.720;2023-06-14T03:49:40;20.40;83.80
20977;DHT22;10647;51.016;3.720;2023-06-14T03:52:08;20.40;83.70
20977;DHT22;10647;51.016;3.720;2023-06-14T03:54:35;20.40;83.30
20977;DHT22;10647;51.016;3.720;2023-06-14T03:57:03;20.40;83.20
20977;DHT22;10647;51.016;3.720;2023-06-14T03:59:32;20.40;82.90
20977;DHT22;10647;51.016;3.720;2023-06-14T04:01:59;20.50;82.70
20977;DHT22;10647;51.016;3.720;2023-06-14T04:04:27;20.50;82.70
20977;DHT22;10647;51.016;3.720;2023-06-14T04:06:57;20.50;82.50
20977;DHT22;10647;51.016;3.720;2023-06-14T04:09:27;20.60;82.20
20977;DHT22;10647;51.016;3.720;2023-06-14T04:11:54;20.60;81.90
20977;DHT22;10647;51.016;3.720;2023-06-14T04:14:22;20.60;81.70
20977;DHT22;10647;51.016;3.720;2023-06-14T04:16:51;20.60;81.40
20977;DHT22;10647;51.016;3.720;2023-06-14T04:19:18;20.60;80.90
20977;DHT22;10647;51.016;3.720;2023-06-14T04:21:46;20.70;80.40
20977;DHT22;10647;51.016;3.720;2023-06-14T04:24:13;20.70;80.30
20977;DHT22;10647;51.016;3.720;2023-06-14T04:26:42;20.80;79.90
20977;DHT22;10647;51.016;3.720;2023-06-14T04:29:12;20.80;79.40
20977;DHT22;10647;51.016;3.720;2023-06-14T04:31:43;20.90;78.70
20977;DHT22;10647;51.016;3.720;2023-06-14T04:34:11;20.90;78.40
20977;DHT22;10647;51.016;3.720;2023-06-14T04:36:40;21.00;78.20
20977;DHT22;10647;51.016;3.720;2023-06-14T04:39:09;21.00;78.00
20977;DHT22;10647;51.016;3.720;2023-06-14T04:41:37;21.00;77.60
20977;DHT22;10647;51.016;3.720;2023-06-14T04:44:04;21.10;77.30
20977;DHT22;10647;51.016;3.720;2023-06-14T04:46:33;21.10;77.00
20977;DHT22;10647;51.016;3.720;2023-06-14T04:49:03;21.20;76.80
20977;DHT22;10647;51.016;3.720;2023-06-14T04:51:30;21.20;76.30
20977;DHT22;10647;51.016;3.720;2023-06-14T04:53:59;21.30;76.30
20977;DHT22;10647;51.016;3.720;2023-06-14T04:56:27;21.30;76.20
20977;DHT22;10647;51.016;3.720;2023-06-14T04:58:56;21.40;76.00
20977;DHT22;10647;51.016;3.720;2023-06-14T05:01:23;21.40;75.80
20977;DHT22;10647;51.016;3.720;2023-06-14T05:03:51;21.50;75.60
20977;DHT22;10647;51.016;3.720;2023-06-14T05:06:18;21.60;75.40
20977;DHT22;10647;51.016;3.720;2023-06-14T05:08:46;21.60;75.10
20977;DHT22;10647;51.016;3.720;2023-06-14T05:11:14;21.60;74.90
20977;DHT22;10647;51.016;3.720;2023-06-14T05:13:43;21.70;75.00
20977;DHT22;10647;51.016;3.720;2023-06-14T05:16:14;21.70;74.80
20977;DHT22;10647;51.016;3.720;2023-06-14T05:18:43;21.80;74.70
20977;DHT22;10647;51.016;3.720;2023-06-14T05:21:15;21.80;74.60
20977;DHT22;10647;51.016;3.720;2023-06-14T05:23:46;21.90;74.40
20977;DHT22;10647;51.016;3.720;2023-06-14T05:26:14;22.00;74.20
20977;DHT22;10647;51.016;3.720;2023-06-14T05:28:47;22.00;73.70
20977;DHT22;10647;51.016;3.720;2023-06-14T05:31:16;22.10;73.70
20977;DHT22;10647;51.016;3.720;2023-06-14T05:33:46;22.10;73.20
20977;DHT22;10647;51.016;3.720;2023-06-14T05:36:14;22.20;73.10
20977;DHT22;10647;51.016;3.720;2023-06-14T05:38:41;22.20;72.70
20977;DHT22;10647;51.016;3.720;2023-06-14T05:41:09;22.30;72.70
20977;DHT22;10647;51.016;3.720;2023-06-14T05:43:37;22.40;72.70
20977;DHT22;10647;51.016;3.720;2023-06-14T05:46:05;22.40;72.70
20977;DHT22;10647;51.016;3.720;2023-06-14T05:48:32;22.50;72.90
20977;DHT22;10647;51.016;3.720;2023-06-14T05:51:00;22.50;72.30
20977;DHT22;10647;51.016;3.720;2023-06-14T05:53:29;22.60;72.70
20977;DHT22;10647;51.016;3.720;2023-06-14T05:55:57;22.60;71.90
20977;DHT22;10647;51.016;3.720;2023-06-14T05:58:24;22.60;72.00
20977;DHT22;10647;51.016;3.720;2023-06-14T06:00:52;22.70;71.90
20977;DHT22;10647;51.016;3.720;2023-06-14T06:03:23;22.80;71.50
20977;DHT22;10647;51.016;3.720;2023-06-14T06:05:50;22.80;71.40
20977;DHT22;10647;51.016;3.720;2023-06-14T06:08:21;22.80;71.60
20977;DHT22;10647;51.016;3.720;2023-06-14T06:10:52;22.90;71.40
20977;DHT22;10647;51.016;3.720;2023-06-14T06:13:20;23.00;71.40
20977;DHT22;10647;51.016;3.720;2023-06-14T06:15:49;23.00;71.30
20977;DHT22;10647;51.016;3.720;2023-06-14T06:18:17;23.10;71.30
20977;DHT22;10647;51.016;3.720;2023-06-14T06:20:44;23.10;71.00
20977;DHT22;10647;51.016;3.720;2023-06-14T06:23:13;23.20;71.20
20977;DHT22;10647;51.016;3.720;2023-06-14T06:25:41;23.20;71.40
20977;DHT22;10647;51.016;3.720;2023-06-14T06:28:09;23.30;71.40
20977;DHT22;10647;51.016;3.720;2023-06-14T06:30:37;23.40;71.10
20977;DHT22;10647;51.016;3.720;2023-06-14T06:33:05;23.50;70.30
20977;DHT22;10647;51.016;3.720;2023-06-14T06:35:33;23.50;70.10
20977;DHT22;10647;51.016;3.720;2023-06-14T06:38:00;23.60;70.10
20977;DHT22;10647;51.016;3.720;2023-06-14T06:40:29;23.70;70.00
20977;DHT22;10647;51.016;3.720;2023-06-14T06:42:58;23.70;70.00
20977;DHT22;10647;51.016;3.720;2023-06-14T06:45:32;23.80;69.90
20977;DHT22;10647;51.016;3.720;2023-06-14T06:48:00;23.90;69.70
20977;DHT22;10647;51.016;3.720;2023-06-14T06:50:28;24.00;69.60
20977;DHT22;10647;51.016;3.720;2023-06-14T06:52:55;24.00;69.50
20977;DHT22;10647;51.016;3.720;2023-06-14T06:55:23;24.10;69.10
20977;DHT22;10647;51.016;3.720;2023-06-14T06:57:52;24.20;68.80
20977;DHT22;10647;51.016;3.720;2023-06-14T07:00:20;24.30;68.80
20977;DHT22;10647;51.016;3.720;2023-06-14T07:02:48;24.50;68.60
20977;DHT22;10647;51.016;3.720;2023-06-14T07:05:17;24.60;68.30
20977;DHT22;10647;51.016;3.720;2023-06-14T07:07:45;24.70;67.50
20977;DHT22;10647;51.016;3.720;2023-06-14T07:10:18;24.80;67.00
20977;DHT22;10647;51.016;3.720;2023-06-14T07:12:52;24.80;66.70
20977;DHT22;10647;51.016;3.720;2023-06-14T07:15:20;25.00;66.90
20977;DHT22;10647;51.016;3.720;2023-06-14T07:17:48;25.00;66.20
20977;DHT22;10647;51.016;3.720;2023-06-14T07:20:17;25.00;66.20
20977;DHT22;10647;51.016;3.720;2023-06-14T07:22:44;25.20;66.30
20977;DHT22;10647;51.016;3.720;2023-06-14T07:25:13;25.20;66.10
20977;DHT22;10647;51.016;3.720;2023-06-14T07:27:41;25.40;66.50
20977;DHT22;10647;51.016;3.720;2023-06-14T07:30:10;25.40;66.30
20977;DHT22;10647;51.016;3.720;2023-06-14T07:32:38;25.50;65.60
20977;DHT22;10647;51.016;3.720;2023-06-14T07:35:06;25.60;64.90
20977;DHT22;10647;51.016;3.720;2023-06-14T07:37:34;25.60;65.00
20977;DHT22;10647;51.016;3.720;2023-06-14T07:40:02;25.70;65.00
20977;DHT22;10647;51.016;3.720;2023-06-14T07:42:33;25.80;65.10
20977;DHT22;10647;51.016;3.720;2023-06-14T07:45:05;25.90;64.90
20977;DHT22;10647;51.016;3.720;2023-06-14T07:47:33;25.90;64.50
20977;DHT22;10647;51.016;3.720;2023-06-14T07:50:03;26.00;65.30
20977;DHT22;10647;51.016;3.720;2023-06-14T07:52:31;26.10;64.40
20977;DHT22;10647;51.016;3.720;2023-06-14T07:55:00;26.20;64.40
20977;DHT22;10647;51.016;3.720;2023-06-14T07:57:28;26.30;64.20
20977;DHT22;10647;51.016;3.720;2023-06-14T07:59:55;26.30;64.10
20977;DHT22;10647;51.016;3.720;2023-06-14T08:02:23;26.30;63.80
20977;DHT22;10647;51.016;3.720;2023-06-14T08:05:03;26.30;63.90
20977;DHT22;10647;51.016;3.720;2023-06-14T08:07:31;26.50;63.00
20977;DHT22;10647;51.016;3.720;2023-06-14T08:10:00;26.50;62.20
20977;DHT22;10647;51.016;3.720;2023-06-14T08:12:28;26.60;60.50
20977;DHT22;10647;51.016;3.720;2023-06-14T08:14:58;26.60;60.30
20977;DHT22;10647;51.016;3.720;2023-06-14T08:17:26;26.70;60.00
20977;DHT22;10647;51.016;3.720;2023-06-14T08:19:54;26.70;59.90
20977;DHT22;10647;51.016;3.720;2023-06-14T08:22:24;26.80;60.60
20977;DHT22;10647;51.016;3.720;2023-06-14T08:24:53;27.00;60.30
20977;DHT22;10647;51.016;3.720;2023-06-14T08:27:22;27.10;59.80
20977;DHT22;10647;51.016;3.720;2023-06-14T08:29:49;27.30;60.00
20977;DHT22;10647;51.016;3.720;2023-06-14T08:32:17;27.30;60.30
20977;DHT22;10647;51.016;3.720;2023-06-14T08:34:45;27.30;60.40
20977;DHT22;10647;51.016;3.720;2023-06-14T08:37:15;27.40;60.30
20977;DHT22;10647;51.016;3.720;2023-06-14T08:39:43;27.50;59.90
20977;DHT22;10647;51.016;3.720;2023-06-14T08:42:13;27.50;60.00
20977;DHT22;10647;51.016;3.720;2023-06-14T08:44:42;27.50;59.90
20977;DHT22;10647;51.016;3.720;2023-06-14T08:47:11;27.70;59.50
20977;DHT22;10647;51.016;3.720;2023-06-14T08:49:41;27.70;58.70
20977;DHT22;10647;51.016;3.720;2023-06-14T08:52:12;27.80;58.70
20977;DHT22;10647;51.016;3.720;2023-06-14T08:54:41;27.90;58.40
20977;DHT22;10647;51.016;3.720;2023-06-14T08:57:11;28.00;58.30
20977;DHT22;10647;51.016;3.720;2023-06-14T08:59:45;28.10;58.30
20977;DHT22;10647;51.016;3.720;2023-06-14T09:02:17;28.20;59.00
20977;DHT22;10647;51.016;3.720;2023-06-14T09:04:46;28.30;58.10
20977;DHT22;10647;51.016;3.720;2023-06-14T09:07:16;28.20;57.70
20977;DHT22;10647;51.016;3.720;2023-06-14T09:10:04;28.30;58.00
20977;DHT22;10647;51.016;3.720;2023-06-14T09:12:21;28.30;57.50
20977;DHT22;10647;51.016;3.720;2023-06-14T09:14:48;28.50;58.00
20977;DHT22;10647;51.016;3.720;2023-06-14T09:17:16;28.50;56.80
20977;DHT22;10647;51.016;3.720;2023-06-14T09:19:45;28.60;57.00
20977;DHT22;10647;51.016;3.720;2023-06-14T09:22:13;28.70;56.20
20977;DHT22;10647;51.016;3.720;2023-06-14T09:24:43;28.60;55.50
20977;DHT22;10647;51.016;3.720;2023-06-14T09:27:14;28.80;55.50
20977;DHT22;10647;51.016;3.720;2023-06-14T09:29:47;28.90;55.40
20977;DHT22;10647;51.016;3.720;2023-06-14T09:32:15;29.00;55.20
20977;DHT22;10647;51.016;3.720;2023-06-14T09:34:42;28.90;53.50
20977;DHT22;10647;51.016;3.720;2023-06-14T09:37:10;29.00;53.50
20977;DHT22;10647;51.016;3.720;2023-06-14T09:39:52;29.10;53.40
20977;DHT22;10647;51.016;3.720;2023-06-14T09:42:20;29.20;53.10
20977;DHT22;10647;51.016;3.720;2023-06-14T09:44:49;29.30;52.90
20977;DHT22;10647;51.016;3.720;2023-06-14T09:47:19;29.30;53.00
20977;DHT22;10647;51.016;3.720;2023-06-14T09:49:50;29.50;53.10
20977;DHT22;10647;51.016;3.720;2023-06-14T09:52:21;29.50;53.20
20977;DHT22;10647;51.016;3.720;2023-06-14T09:54:49;29.50;52.90
20977;DHT22;10647;51.016;3.720;2023-06-14T09:57:21;29.70;52.30
20977;DHT22;10647;51.016;3.720;2023-06-14T09:59:48;29.80;52.20
20977;DHT22;10647;51.016;3.720;2023-06-14T10:05:04;29.90;51.70
20977;DHT22;10647;51.016;3.720;2023-06-14T10:07:53;29.90;50.80
20977;DHT22;10647;51.016;3.720;2023-06-14T10:10:22;29.90;50.50
20977;DHT22;10647;51.016;3.720;2023-06-14T10:12:58;29.90;49.80
20977;DHT22;10647;51.016;3.720;2023-06-14T10:15:32;30.00;49.60
20977;DHT22;10647;51.016;3.720;2023-06-14T10:18:22;29.90;50.00
20977;DHT22;10647;51.016;3.720;2023-06-14T10:21:04;29.90;50.10
20977;DHT22;10647;51.016;3.720;2023-06-14T10:23:35;30.00;50.00
20977;DHT22;10647;51.016;3.720;2023-06-14T10:26:02;30.00;50.10
20977;DHT22;10647;51.016;3.720;2023-06-14T10:28:30;30.10;49.90
20977;DHT22;10647;51.016;3.720;2023-06-14T10:31:03;30.30;49.80
20977;DHT22;10647;51.016;3.720;2023-06-14T10:33:39;30.30;49.20
20977;DHT22;10647;51.016;3.720;2023-06-14T10:36:28;30.20;48.70
20977;DHT22;10647;51.016;3.720;2023-06-14T10:39:18;30.10;48.90
20977;DHT22;10647;51.016;3.720;2023-06-14T10:41:54;30.30;49.00
20977;DHT22;10647;51.016;3.720;2023-06-14T10:46:53;30.30;49.00
20977;DHT22;10647;51.016;3.720;2023-06-14T10:49:41;30.40;49.50
20977;DHT22;10647;51.016;3.720;2023-06-14T10:52:17;30.30;49.20
20977;DHT22;10647;51.016;3.720;2023-06-14T10:55:13;30.40;50.10
20977;DHT22;10647;51.016;3.720;2023-06-14T10:57:46;30.60;49.70
20977;DHT22;10647;51.016;3.720;2023-06-14T11:00:16;30.80;49.50
20977;DHT22;10647;51.016;3.720;2023-06-14T11:02:51;31.00;48.80
20977;DHT22;10647;51.016;3.720;2023-06-14T11:05:27;31.20;48.00
20977;DHT22;10647;51.016;3.720;2023-06-14T11:08:19;31.40;48.30
20977;DHT22;10647;51.016;3.720;2023-06-14T11:10:45;31.60;48.30
20977;DHT22;10647;51.016;3.720;2023-06-14T11:13:16;31.60;48.10
20977;DHT22;10647;51.016;3.720;2023-06-14T11:15:47;31.70;47.60
20977;DHT22;10647;51.016;3.720;2023-06-14T11:18:16;31.60;47.50
20977;DHT22;10647;51.016;3.720;2023-06-14T11:20:46;31.60;47.40
20977;DHT22;10647;51.016;3.720;2023-06-14T11:23:14;31.60;47.70
20977;DHT22;10647;51.016;3.720;2023-06-14T11:25:42;31.70;46.70
20977;DHT22;10647;51.016;3.720;2023-06-14T11:28:09;31.70;47.30
20977;DHT22;10647;51.016;3.720;2023-06-14T11:30:37;31.80;47.10
20977;DHT22;10647;51.016;3.720;2023-06-14T11:33:05;31.80;47.30
20977;DHT22;10647;51.016;3.720;2023-06-14T11:35:34;31.70;47.20
20977;DHT22;10647;51.016;3.720;2023-06-14T11:38:07;31.60;47.40
20977;DHT22;10647;51.016;3.720;2023-06-14T11:40:38;31.70;47.90
20977;DHT22;10647;51.016;3.720;2023-06-14T11:43:06;31.80;47.40
20977;DHT22;10647;51.016;3.720;2023-06-14T11:45:34;31.80;46.80
20977;DHT22;10647;51.016;3.720;2023-06-14T11:48:02;31.50;46.40
20977;DHT22;10647;51.016;3.720;2023-06-14T11:50:29;31.70;46.30
20977;DHT22;10647;51.016;3.720;2023-06-14T11:52:58;31.90;46.30
20977;DHT22;10647;51.016;3.720;2023-06-14T11:55:29;32.10;46.30
20977;DHT22;10647;51.016;3.720;2023-06-14T11:58:03;32.20;46.30
20977;DHT22;10647;51.016;3.720;2023-06-14T12:00:30;32.30;46.00
20977;DHT22;10647;51.016;3.720;2023-06-14T12:02:58;32.30;45.40
20977;DHT22;10647;51.016;3.720;2023-06-14T12:05:26;32.20;45.50
20977;DHT22;10647;51.016;3.720;2023-06-14T12:08:02;32.30;45.30
20977;DHT22;10647;51.016;3.720;2023-06-14T12:10:43;32.30;44.10
20977;DHT22;10647;51.016;3.720;2023-06-14T12:13:17;32.30;44.60
20977;DHT22;10647;51.016;3.720;2023-06-14T12:15:53;32.40;44.80
20977;DHT22;10647;51.016;3.720;2023-06-14T12:18:18;32.50;44.90
20977;DHT22;10647;51.016;3.720;2023-06-14T12:20:49;32.50;45.50
20977;DHT22;10647;51.016;3.720;2023-06-14T12:23:18;32.50;45.40
20977;DHT22;10647;51.016;3.720;2023-06-14T12:25:45;32.60;45.40
20977;DHT22;10647;51.016;3.720;2023-06-14T12:28:15;32.70;45.50
20977;DHT22;10647;51.016;3.720;2023-06-14T12:30:44;32.60;45.20
20977;DHT22;10647;51.016;3.720;2023-06-14T12:33:12;32.70;46.00
20977;DHT22;10647;51.016;3.720;2023-06-14T12:35:39;32.70;45.20
20977;DHT22;10647;51.016;3.720;2023-06-14T12:38:07;32.80;45.10
20977;DHT22;10647;51.016;3.720;2023-06-14T12:40:37;33.00;45.10
20977;DHT22;10647;51.016;3.720;2023-06-14T12:43:06;33.30;44.70
20977;DHT22;10647;51.016;3.720;2023-06-14T12:45:34;33.50;44.60
20977;DHT22;10647;51.016;3.720;2023-06-14T12:48:02;33.70;44.50
20977;DHT22;10647;51.016;3.720;2023-06-14T12:50:30;33.80;44.50
20977;DHT22;10647;51.016;3.720;2023-06-14T12:52:59;33.70;44.00
20977;DHT22;10647;51.016;3.720;2023-06-14T12:55:26;33.70;44.30
20977;DHT22;10647;51.016;3.720;2023-06-14T12:57:54;33.90;44.60
20977;DHT22;10647;51.016;3.720;2023-06-14T13:00:22;34.30;44.30
20977;DHT22;10647;51.016;3.720;2023-06-14T13:02:52;35.00;43.60
20977;DHT22;10647;51.016;3.720;2023-06-14T13:05:21;37.60;41.70
20977;DHT22;10647;51.016;3.720;2023-06-14T13:07:49;41.00;38.60
20977;DHT22;10647;51.016;3.720;2023-06-14T13:10:22;44.30;35.90
20977;DHT22;10647;51.016;3.720;2023-06-14T13:12:50;41.30;35.30
20977;DHT22;10647;51.016;3.720;2023-06-14T13:15:18;44.20;34.70
20977;DHT22;10647;51.016;3.720;2023-06-14T13:17:45;46.70;33.10
20977;DHT22;10647;51.016;3.720;2023-06-14T13:20:15;47.90;31.30
20977;DHT22;10647;51.016;3.720;2023-06-14T13:22:45;48.50;30.00
20977;DHT22;10647;51.016;3.720;2023-06-14T13:25:12;49.40;29.50
20977;DHT22;10647;51.016;3.720;2023-06-14T13:27:41;50.50;28.80
20977;DHT22;10647;51.016;3.720;2023-06-14T13:30:09;51.10;28.20
20977;DHT22;10647;51.016;3.720;2023-06-14T13:32:37;51.20;27.70
20977;DHT22;10647;51.016;3.720;2023-06-14T13:35:05;51.50;27.40
20977;DHT22;10647;51.016;3.720;2023-06-14T13:37:33;51.90;27.00
20977;DHT22;10647;51.016;3.720;2023-06-14T13:40:00;52.90;26.60
20977;DHT22;10647;51.016;3.720;2023-06-14T13:42:28;52.90;26.10
20977;DHT22;10647;51.016;3.720;2023-06-14T13:44:58;52.60;26.10
20977;DHT22;10647;51.016;3.720;2023-06-14T13:47:45;52.00;26.40
20977;DHT22;10647;51.016;3.720;2023-06-14T13:50:16;51.90;26.30
20977;DHT22;10647;51.016;3.720;2023-06-14T13:52:44;52.00;26.00
20977;DHT22;10647;51.016;3.720;2023-06-14T13:55:13;52.40;25.90
20977;DHT22;10647;51.016;3.720;2023-06-14T13:57:42;52.40;25.60
20977;DHT22;10647;51.016;3.720;2023-06-14T14:00:10;53.10;25.20
20977;DHT22;10647;51.016;3.720;2023-06-14T14:02:38;52.90;25.20
20977;DHT22;10647;51.016;3.720;2023-06-14T14:05:08;52.80;24.80
20977;DHT22;10647;51.016;3.720;2023-06-14T14:07:36;52.80;24.80
20977;DHT22;10647;51.016;3.720;2023-06-14T14:10:05;52.90;24.50
20977;DHT22;10647;51.016;3.720;2023-06-14T14:12:34;53.30;24.20
20977;DHT22;10647;51.016;3.720;2023-06-14T14:15:01;54.00;23.80
20977;DHT22;10647;51.016;3.720;2023-06-14T14:17:29;54.50;23.80
20977;DHT22;10647;51.016;3.720;2023-06-14T14:19:56;54.50;24.00
20977;DHT22;10647;51.016;3.720;2023-06-14T14:22:24;53.60;24.20
20977;DHT22;10647;51.016;3.720;2023-06-14T14:24:51;53.70;24.10
20977;DHT22;10647;51.016;3.720;2023-06-14T14:27:19;53.20;24.00
20977;DHT22;10647;51.016;3.720;2023-06-14T14:29:46;52.30;24.50
20977;DHT22;10647;51.016;3.720;2023-06-14T14:32:14;52.60;24.50
20977;DHT22;10647;51.016;3.720;2023-06-14T14:34:41;53.40;24.20
20977;DHT22;10647;51.016;3.720;2023-06-14T14:37:09;53.20;23.80
20977;DHT22;10647;51.016;3.720;2023-06-14T14:39:37;53.10;24.20
20977;DHT22;10647;51.016;3.720;2023-06-14T14:42:05;52.70;24.10
20977;DHT22;10647;51.016;3.720;2023-06-14T14:44:34;52.60;24.20
20977;DHT22;10647;51.016;3.720;2023-06-14T14:47:02;53.00;24.10
20977;DHT22;10647;51.016;3.720;2023-06-14T14:49:30;53.70;23.60
20977;DHT22;10647;51.016;3.720;2023-06-14T14:51:58;53.30;23.80
20977;DHT22;10647;51.016;3.720;2023-06-14T14:54:26;53.20;23.80
20977;DHT22;10647;51.016;3.720;2023-06-14T14:56:56;53.40;23.70
20977;DHT22;10647;51.016;3.720;2023-06-14T14:59:23;53.60;23.60
20977;DHT22;10647;51.016;3.720;2023-06-14T15:01:51;53.40;23.50
20977;DHT22;10647;51.016;3.720;2023-06-14T15:04:19;53.30;23.70
20977;DHT22;10647;51.016;3.720;2023-06-14T15:06:46;52.40;23.70
20977;DHT22;10647;51.016;3.720;2023-06-14T15:09:14;51.90;24.00
20977;DHT22;10647;51.016;3.720;2023-06-14T15:11:41;52.50;24.00
20977;DHT22;10647;51.016;3.720;2023-06-14T15:14:11;52.20;23.80
20977;DHT22;10647;51.016;3.720;2023-06-14T15:16:40;51.80;23.90
20977;DHT22;10647;51.016;3.720;2023-06-14T15:19:08;52.20;23.90
20977;DHT22;10647;51.016;3.720;2023-06-14T15:21:35;52.70;23.50
20977;DHT22;10647;51.016;3.720;2023-06-14T15:24:03;52.20;23.20
20977;DHT22;10647;51.016;3.720;2023-06-14T15:26:30;52.40;23.50
20977;DHT22;10647;51.016;3.720;2023-06-14T15:28:58;52.10;23.50
20977;DHT22;10647;51.016;3.720;2023-06-14T15:31:25;52.00;23.30
20977;DHT22;10647;51.016;3.720;2023-06-14T15:33:54;52.10;23.30
20977;DHT22;10647;51.016;3.720;2023-06-14T15:36:22;52.50;23.20
20977;DHT22;10647;51.016;3.720;2023-06-14T15:38:49;52.30;23.00
20977;DHT22;10647;51.016;3.720;2023-06-14T15:41:18;52.20;22.90
20977;DHT22;10647;51.016;3.720;2023-06-14T15:43:45;51.60;23.00
20977;DHT22;10647;51.016;3.720;2023-06-14T15:46:13;50.40;23.50
20977;DHT22;10647;51.016;3.720;2023-06-14T15:48:40;49.60;23.80
20977;DHT22;10647;51.016;3.720;2023-06-14T15:51:16;46.70;24.50
20977;DHT22;10647;51.016;3.720;2023-06-14T15:53:47;46.50;25.20